createdAt,value
2019-03-16T00:02:39.073Z,9.93
2019-03-16T00:06:51.874Z,10.43
2019-03-16T00:11:04.499Z,10.33
2019-03-16T00:15:16.736Z,13.63
2019-03-16T00:19:30.076Z,9.83
2019-03-16T00:23:42.787Z,11.03
2019-03-16T00:27:55.378Z,9.63
2019-03-16T00:32:13.255Z,5.10
2019-03-16T00:36:21.683Z,7.83
2019-03-16T00:40:35.225Z,10.13
2019-03-16T00:44:47.546Z,12.60
2019-03-16T00:49:00.535Z,15.73
2019-03-16T00:53:12.992Z,17.43
2019-03-16T00:57:25.522Z,11.67
2019-03-16T01:01:38.287Z,13.03
2019-03-16T01:05:50.649Z,8.60
2019-03-16T01:10:03.058Z,10.87
2019-03-16T01:14:16.020Z,10.43
2019-03-16T01:18:28.509Z,9.03
2019-03-16T01:22:40.927Z,11.87
2019-03-16T01:26:53.813Z,9.10
2019-03-16T01:31:06.446Z,12.43
2019-03-16T01:35:18.779Z,10.50
2019-03-16T01:39:31.564Z,9.77
2019-03-16T01:43:44.192Z,13.53
2019-03-16T01:47:57.135Z,14.27
2019-03-16T01:52:09.579Z,13.53
2019-03-16T01:56:22.109Z,10.13
2019-03-16T02:00:34.984Z,13.40
2019-03-16T02:04:47.336Z,12.70
2019-03-16T02:08:59.651Z,9.33
2019-03-16T02:13:12.032Z,8.77
2019-03-16T02:17:24.882Z,6.37
2019-03-16T02:21:37.307Z,6.83
2019-03-16T02:25:50.192Z,11.77
2019-03-16T02:30:02.684Z,8.60
2019-03-16T02:34:15.064Z,12.10
2019-03-16T02:38:28.496Z,11.23
2019-03-16T02:42:40.907Z,8.73
2019-03-16T02:46:53.665Z,9.53
2019-03-16T02:51:06.266Z,13.97
2019-03-16T02:55:18.664Z,10.00
2019-03-16T02:59:31.583Z,11.20
2019-03-16T03:03:44.024Z,11.87
2019-03-16T03:07:57.021Z,12.00
2019-03-16T03:12:09.461Z,8.37
2019-03-16T03:16:21.960Z,6.20
2019-03-16T03:20:34.767Z,9.63
2019-03-16T03:24:47.221Z,7.07
2019-03-16T03:29:00.216Z,20.97
2019-03-16T03:33:12.567Z,12.10
2019-03-16T03:37:25.566Z,12.17
2019-03-16T03:41:38.217Z,6.63
2019-03-16T03:45:50.626Z,10.60
2019-03-16T03:50:04.148Z,12.47
2019-03-16T03:54:17.063Z,10.53
2019-03-16T03:58:29.751Z,10.20
2019-03-16T04:02:42.137Z,15.30
2019-03-16T04:06:54.923Z,14.97
2019-03-16T04:11:07.384Z,12.47
2019-03-16T04:15:19.689Z,13.27
2019-03-16T04:19:32.676Z,17.20
2019-03-16T04:23:45.244Z,12.03
2019-03-16T04:27:58.765Z,14.13
2019-03-16T04:32:11.092Z,10.37
2019-03-16T04:36:23.501Z,12.10
2019-03-16T04:40:36.192Z,13.37
2019-03-16T04:44:48.647Z,15.00
2019-03-16T04:49:00.955Z,15.70
2019-03-16T04:53:13.327Z,15.40
2019-03-16T04:57:26.128Z,20.87
2019-03-16T05:01:38.792Z,16.07
2019-03-16T05:05:51.557Z,15.93
2019-03-16T05:10:07.044Z,17.30
2019-03-16T05:14:18.011Z,10.60
2019-03-16T05:18:30.904Z,17.80
2019-03-16T05:22:43.478Z,10.23
2019-03-16T05:26:55.767Z,12.60
2019-03-16T05:31:08.101Z,16.67
2019-03-16T05:35:20.872Z,10.87
2019-03-16T05:39:33.441Z,15.40
2019-03-16T05:43:45.740Z,17.97
2019-03-16T05:47:58.534Z,14.73
2019-03-16T05:52:10.999Z,17.37
2019-03-16T05:56:23.460Z,13.93
2019-03-16T06:00:36.248Z,19.53
2019-03-16T06:04:48.816Z,17.30
2019-03-16T06:09:01.736Z,14.00
2019-03-16T06:13:14.294Z,20.30
2019-03-16T06:17:26.804Z,15.07
2019-03-16T06:21:39.115Z,12.93
2019-03-16T06:25:51.864Z,14.10
2019-03-16T06:30:04.364Z,11.47
2019-03-16T06:34:16.668Z,13.57
2019-03-16T06:38:30.216Z,10.67
2019-03-16T06:42:42.522Z,9.37
2019-03-16T06:46:55.977Z,15.83
2019-03-16T06:51:08.366Z,10.47
2019-03-16T06:55:21.276Z,19.93
2019-03-16T06:59:33.792Z,13.83
2019-03-16T07:03:46.204Z,11.50
2019-03-16T07:07:58.874Z,15.27
2019-03-16T07:12:11.596Z,10.37
2019-03-16T07:16:23.900Z,14.07
2019-03-16T07:20:36.795Z,11.30
2019-03-16T07:24:51.724Z,13.57
2019-03-16T07:29:03.149Z,13.53
2019-03-16T07:33:15.501Z,12.13
2019-03-16T07:37:28.087Z,18.70
2019-03-16T07:41:40.546Z,13.43
2019-03-16T07:45:52.957Z,14.60
2019-03-16T07:50:06.563Z,17.80
2019-03-16T07:54:19.315Z,18.83
2019-03-16T07:58:32.005Z,14.57
2019-03-16T08:02:44.440Z,14.17
2019-03-16T08:06:57.097Z,13.37
2019-03-16T08:11:09.608Z,15.83
2019-03-16T08:15:21.915Z,20.63
2019-03-16T08:19:34.715Z,14.50
2019-03-16T08:23:47.412Z,17.97
2019-03-16T08:28:00.808Z,14.97
2019-03-16T08:32:13.182Z,13.73
2019-03-16T08:36:26.012Z,11.70
2019-03-16T08:40:38.574Z,10.80
2019-03-16T08:44:50.877Z,16.83
2019-03-16T08:49:04.315Z,7.60
2019-03-16T08:53:16.633Z,11.57
2019-03-16T08:57:29.523Z,12.83
2019-03-16T09:01:42.105Z,12.60
2019-03-16T09:05:54.484Z,14.50
2019-03-16T09:10:08.048Z,10.03
2019-03-16T09:14:20.924Z,15.53
2019-03-16T09:18:33.399Z,11.80
2019-03-16T09:22:45.794Z,14.20
2019-03-16T09:26:59.131Z,12.70
2019-03-16T09:31:11.444Z,14.53
2019-03-16T09:35:23.816Z,13.53
2019-03-16T09:39:36.548Z,12.63
2019-03-16T09:43:48.996Z,9.53
2019-03-16T09:48:01.891Z,14.57
2019-03-16T09:52:14.443Z,10.23
2019-03-16T09:56:26.752Z,15.80
2019-03-16T10:00:39.347Z,14.03
2019-03-16T10:04:52.063Z,16.37
2019-03-16T10:09:04.648Z,16.70
2019-03-16T10:13:17.414Z,14.10
2019-03-16T10:17:29.861Z,14.37
2019-03-16T10:21:42.267Z,16.17
2019-03-16T10:25:55.063Z,14.20
2019-03-16T10:30:09.391Z,12.27
2019-03-16T10:34:21.672Z,14.70
2019-03-16T10:38:34.524Z,13.93
2019-03-16T10:42:47.022Z,12.53
2019-03-16T10:46:59.796Z,9.30
2019-03-16T10:51:12.406Z,12.00
2019-03-16T10:55:25.342Z,17.20
2019-03-16T10:59:37.911Z,18.77
2019-03-16T11:03:50.891Z,12.33
2019-03-16T11:08:03.419Z,12.43
2019-03-16T11:12:16.240Z,14.03
2019-03-16T11:16:28.702Z,16.87
2019-03-16T11:20:41.102Z,13.77
2019-03-16T11:24:54.008Z,18.27
2019-03-16T11:29:09.162Z,13.03
2019-03-16T11:33:20.310Z,16.57
2019-03-16T11:37:33.279Z,15.77
2019-03-16T11:41:45.855Z,15.57
2019-03-16T11:45:58.157Z,13.20
2019-03-16T11:50:11.713Z,17.23
2019-03-16T11:54:24.011Z,14.87
2019-03-16T11:58:36.915Z,16.53
2019-03-16T12:02:49.397Z,9.80
2019-03-16T12:07:02.359Z,10.17
2019-03-16T12:11:14.985Z,12.10
2019-03-16T12:15:27.315Z,10.87
2019-03-16T12:19:40.555Z,15.13
2019-03-16T12:23:52.859Z,14.80
2019-03-16T12:28:05.567Z,14.00
2019-03-16T12:32:18.111Z,16.57
2019-03-16T12:36:30.422Z,15.13
2019-03-16T12:40:43.565Z,11.03
2019-03-16T12:44:55.972Z,11.33
2019-03-16T12:49:14.338Z,10.37
2019-03-16T12:53:27.316Z,14.50
2019-03-16T12:57:39.892Z,14.57
2019-03-16T13:01:52.871Z,14.83
2019-03-16T13:06:05.428Z,13.07
2019-03-16T13:10:17.854Z,13.27
2019-03-16T13:14:30.220Z,13.03
2019-03-16T13:18:42.939Z,14.03
2019-03-16T13:22:55.299Z,11.13
2019-03-16T13:27:08.224Z,13.33
2019-03-16T13:31:20.844Z,10.77
2019-03-16T13:35:33.262Z,15.80
2019-03-16T13:39:46.699Z,13.47
2019-03-16T13:43:59.092Z,11.17
2019-03-16T13:48:11.695Z,12.33
2019-03-16T13:52:24.254Z,13.90
2019-03-16T13:56:36.551Z,14.53
2019-03-16T14:00:49.450Z,13.30
2019-03-16T14:05:02.144Z,17.07
2019-03-16T14:09:15.239Z,13.10
2019-03-16T14:13:27.764Z,14.70
2019-03-16T14:17:40.819Z,16.50
2019-03-16T14:21:53.414Z,14.83
2019-03-16T14:26:06.507Z,15.00
2019-03-16T14:30:34.882Z,17.83
2019-03-16T14:34:32.801Z,17.27
2019-03-16T14:38:46.253Z,14.10
2019-03-16T14:42:58.972Z,17.63
2019-03-16T14:47:12.023Z,14.03
2019-03-16T14:51:24.915Z,10.47
2019-03-16T14:55:37.617Z,20.27
2019-03-16T14:59:50.272Z,19.10
2019-03-16T15:04:03.184Z,12.07
2019-03-16T15:08:15.618Z,16.37
2019-03-16T15:12:28.019Z,12.57
2019-03-16T15:16:41.372Z,14.60
2019-03-16T15:20:53.741Z,14.93
2019-03-16T15:25:06.469Z,14.53
2019-03-16T15:29:19.059Z,22.37
2019-03-16T15:33:31.336Z,12.73
2019-03-16T15:37:44.126Z,19.47
2019-03-16T15:41:56.739Z,14.37
2019-03-16T15:46:09.092Z,20.30
2019-03-16T15:50:22.328Z,18.07
2019-03-16T15:54:34.783Z,16.37
2019-03-16T15:58:47.538Z,20.20
2019-03-16T16:03:00.221Z,15.27
2019-03-16T16:07:13.091Z,17.03
2019-03-16T16:11:25.635Z,18.43
2019-03-16T16:15:38.277Z,17.70
2019-03-16T16:19:50.837Z,20.33
2019-03-16T16:24:03.365Z,20.20
2019-03-16T16:28:16.244Z,19.43
2019-03-16T16:32:28.840Z,20.80
2019-03-16T16:36:41.339Z,20.37
2019-03-16T16:40:54.144Z,15.67
2019-03-16T16:45:07.077Z,16.13
2019-03-16T16:49:19.426Z,16.43
2019-03-16T16:53:31.815Z,23.50
2019-03-16T16:57:44.528Z,27.07
2019-03-16T17:01:57.114Z,22.97
2019-03-16T17:06:09.619Z,24.43
2019-03-16T17:10:22.603Z,19.93
2019-03-16T17:14:35.175Z,18.63
2019-03-16T17:18:48.691Z,22.33
2019-03-16T17:23:01.023Z,22.23
2019-03-16T17:27:13.955Z,20.60
2019-03-16T17:31:26.554Z,23.13
2019-03-16T17:35:38.883Z,20.83
2019-03-16T17:39:51.842Z,11.97
2019-03-16T17:44:04.414Z,18.07
2019-03-16T17:48:17.402Z,23.37
2019-03-16T17:52:29.856Z,22.03
2019-03-16T17:56:42.411Z,23.90
2019-03-16T18:00:54.783Z,21.23
2019-03-16T18:05:07.700Z,26.87
2019-03-16T18:09:20.041Z,25.37
2019-03-16T18:13:32.340Z,28.13
2019-03-16T18:17:45.786Z,19.73
2019-03-16T18:21:58.105Z,25.17
2019-03-16T18:26:10.993Z,21.13
2019-03-16T18:30:23.979Z,23.47
2019-03-16T18:34:36.374Z,19.67
2019-03-16T18:38:48.780Z,21.30
2019-03-16T18:43:01.680Z,28.27
2019-03-16T18:47:14.119Z,23.93
2019-03-16T18:51:26.428Z,24.20
2019-03-16T18:55:38.644Z,28.53
2019-03-16T18:59:52.310Z,21.67
2019-03-16T19:04:05.352Z,28.10
2019-03-16T19:08:17.846Z,23.40
2019-03-16T19:12:30.256Z,34.70
2019-03-16T19:16:43.038Z,26.47
2019-03-16T19:20:55.504Z,30.43
2019-03-16T19:25:08.461Z,32.60
2019-03-16T19:29:21.051Z,26.23
2019-03-16T19:33:33.416Z,23.63
2019-03-16T19:37:46.901Z,27.57
2019-03-16T19:41:59.310Z,26.37
2019-03-16T19:46:12.103Z,26.77
2019-03-16T19:50:24.661Z,27.03
2019-03-16T19:54:37.076Z,25.97
2019-03-16T19:59:00.163Z,31.10
2019-03-16T20:03:04.027Z,27.67
2019-03-16T20:07:19.451Z,31.20
2019-03-16T20:11:31.043Z,31.30
2019-03-16T20:15:44.021Z,28.47
2019-03-16T20:19:57.780Z,29.23
2019-03-16T20:24:10.135Z,30.23
2019-03-16T20:28:23.674Z,32.37
2019-03-16T20:32:36.183Z,32.93
2019-03-16T20:36:49.088Z,26.73
2019-03-16T20:41:01.759Z,25.87
2019-03-16T20:45:14.236Z,33.30
2019-03-16T20:49:26.980Z,31.37
2019-03-16T20:53:39.391Z,36.10
2019-03-16T20:57:51.804Z,32.33
2019-03-16T21:02:04.120Z,27.57
2019-03-16T21:06:18.433Z,35.03
2019-03-16T21:10:32.355Z,34.93
2019-03-16T21:14:44.747Z,30.70
2019-03-16T21:18:57.064Z,36.17
2019-03-16T21:23:09.377Z,32.27
2019-03-16T21:27:22.163Z,33.50
2019-03-16T21:31:34.616Z,33.77
2019-03-16T21:35:47.011Z,35.77
2019-03-16T21:39:59.716Z,34.67
2019-03-16T21:44:12.072Z,47.17
2019-03-16T21:48:24.375Z,42.00
2019-03-16T21:52:36.687Z,38.20
2019-03-16T21:56:49.588Z,20.93
2019-03-16T22:01:02.049Z,34.00
2019-03-16T22:05:14.982Z,71.27
2019-03-16T22:09:27.927Z,20.03
2019-03-16T22:13:40.571Z,8.27
2019-03-16T22:17:53.036Z,14.97
2019-03-16T22:22:05.444Z,15.33
2019-03-16T22:26:18.133Z,12.40
2019-03-16T22:30:31.779Z,13.23
2019-03-16T22:34:44.304Z,11.50
2019-03-16T22:38:57.941Z,11.67
2019-03-16T22:43:10.252Z,11.23
2019-03-16T22:47:22.911Z,15.40
2019-03-16T22:51:35.331Z,15.83
2019-03-16T22:55:47.636Z,14.67
2019-03-16T23:00:00.522Z,10.27
2019-03-16T23:04:12.991Z,14.60
2019-03-16T23:08:25.560Z,16.33
2019-03-16T23:12:38.338Z,8.83
2019-03-16T23:16:50.745Z,12.93
2019-03-16T23:21:03.045Z,12.80
2019-03-16T23:25:15.842Z,20.07
2019-03-16T23:29:29.486Z,8.90
2019-03-16T23:33:41.835Z,10.30
2019-03-16T23:37:54.135Z,11.30
2019-03-16T23:42:06.432Z,11.93
2019-03-16T23:46:19.040Z,13.73
2019-03-16T23:50:32.632Z,9.57
2019-03-16T23:54:45.053Z,8.87
2019-03-16T23:58:58.584Z,13.80
